createdAt,value
2019-03-17T00:02:14.578Z,95608.59
2019-03-17T00:04:43.654Z,95600.14
2019-03-17T00:07:16.046Z,95600.46
2019-03-17T00:09:46.677Z,95594.38
2019-03-17T00:12:19.595Z,95593.09
2019-03-17T00:15:04.319Z,95587.98
2019-03-17T00:17:25.030Z,95592.78
2019-03-17T00:19:54.983Z,95591.48
2019-03-17T00:22:24.078Z,95587.77
2019-03-17T00:24:53.596Z,95587.01
2019-03-17T00:27:22.703Z,95581.20
2019-03-17T00:29:55.197Z,95588.86
2019-03-17T00:32:28.354Z,95576.41
2019-03-17T00:34:57.399Z,95585.87
2019-03-17T00:37:26.469Z,95586.06
2019-03-17T00:39:55.508Z,95584.95
2019-03-17T00:42:27.389Z,95580.17
2019-03-17T00:45:00.822Z,95576.82
2019-03-17T00:47:31.977Z,95577.00
2019-03-17T00:50:00.710Z,95577.20
2019-03-17T00:52:30.113Z,95578.41
2019-03-17T00:54:59.321Z,95582.98
2019-03-17T00:57:30.232Z,95569.23
2019-03-17T00:59:59.425Z,95564.48
2019-03-17T01:02:29.569Z,95564.09
2019-03-17T01:04:58.637Z,95557.84
2019-03-17T01:07:29.400Z,95555.77
2019-03-17T01:09:59.935Z,95544.84
2019-03-17T01:12:32.828Z,95542.05
2019-03-17T01:15:01.962Z,95541.87
2019-03-17T01:17:35.577Z,95534.66
2019-03-17T01:20:04.983Z,95528.05
2019-03-17T01:22:35.715Z,95517.14
2019-03-17T01:25:05.747Z,95510.28
2019-03-17T01:27:35.998Z,95507.31
2019-03-17T01:30:07.918Z,95508.06
2019-03-17T01:32:41.565Z,95508.21
2019-03-17T01:35:12.729Z,95500.67
2019-03-17T01:37:47.762Z,95497.02
2019-03-17T01:40:23.002Z,95498.47
2019-03-17T01:42:53.020Z,95492.94
2019-03-17T01:45:27.163Z,95491.58
2019-03-17T01:47:59.186Z,95491.51
2019-03-17T01:50:28.298Z,95488.13
2019-03-17T01:52:58.946Z,95485.98
2019-03-17T01:55:28.197Z,95485.66
2019-03-17T01:58:00.284Z,95475.87
2019-03-17T02:00:36.219Z,95467.69
2019-03-17T02:03:07.013Z,95463.32
2019-03-17T02:05:36.069Z,95458.11
2019-03-17T02:08:05.190Z,95451.77
2019-03-17T02:10:35.301Z,95454.69
2019-03-17T02:13:04.399Z,95453.30
2019-03-17T02:15:36.159Z,95450.47
2019-03-17T02:18:10.067Z,95449.58
2019-03-17T02:20:39.118Z,95444.48
2019-03-17T02:23:08.356Z,95443.22
2019-03-17T02:25:41.107Z,95451.08
2019-03-17T02:28:10.470Z,95445.88
2019-03-17T02:30:41.360Z,95440.31
2019-03-17T02:33:14.301Z,95436.58
2019-03-17T02:35:46.779Z,95447.64
2019-03-17T02:38:17.120Z,95442.80
2019-03-17T02:40:46.301Z,95436.95
2019-03-17T02:43:15.383Z,95430.44
2019-03-17T02:45:53.417Z,95433.22
2019-03-17T02:48:33.671Z,95431.02
2019-03-17T02:51:03.315Z,95427.28
2019-03-17T02:53:32.400Z,95430.54
2019-03-17T02:56:01.461Z,95422.33
2019-03-17T02:58:30.504Z,95428.50
2019-03-17T03:00:59.566Z,95424.92
2019-03-17T03:03:32.526Z,95425.45
2019-03-17T03:06:02.566Z,95430.63
2019-03-17T03:08:38.379Z,95421.92
2019-03-17T03:11:07.623Z,95443.84
2019-03-17T03:13:37.773Z,95420.28
2019-03-17T03:16:06.812Z,95420.09
2019-03-17T03:18:35.869Z,95418.42
2019-03-17T03:21:05.619Z,95415.17
2019-03-17T03:23:34.941Z,95406.07
2019-03-17T03:26:03.975Z,95406.22
2019-03-17T03:28:33.114Z,95398.98
2019-03-17T03:31:22.623Z,95403.34
2019-03-17T03:33:52.235Z,95398.15
2019-03-17T03:36:21.274Z,95395.46
2019-03-17T03:38:52.048Z,95382.45
2019-03-17T03:41:21.228Z,95378.73
2019-03-17T03:43:52.445Z,95368.81
2019-03-17T03:46:22.994Z,95362.22
2019-03-17T03:48:55.259Z,95369.50
2019-03-17T03:51:29.424Z,95369.84
2019-03-17T03:53:58.485Z,95366.90
2019-03-17T03:56:27.523Z,95390.39
2019-03-17T03:58:56.630Z,95366.28
2019-03-17T04:01:31.297Z,95368.38
2019-03-17T04:04:00.533Z,95367.39
2019-03-17T04:06:29.760Z,95369.69
2019-03-17T04:09:00.099Z,95366.75
2019-03-17T04:11:29.376Z,95364.55
2019-03-17T04:14:04.440Z,95360.84
2019-03-17T04:16:33.496Z,95358.16
2019-03-17T04:19:02.551Z,95348.45
2019-03-17T04:21:36.934Z,95344.41
2019-03-17T04:24:06.117Z,95349.41
2019-03-17T04:26:37.953Z,95338.08
2019-03-17T04:29:07.874Z,95331.09
2019-03-17T04:31:38.621Z,95341.45
2019-03-17T04:34:09.321Z,95340.72
2019-03-17T04:36:40.452Z,95342.02
2019-03-17T04:39:09.295Z,95332.25
2019-03-17T04:41:38.367Z,95331.09
2019-03-17T04:44:07.479Z,95328.19
2019-03-17T04:46:41.168Z,95024.95
2019-03-17T04:49:10.283Z,95325.72
2019-03-17T04:51:39.445Z,95323.88
2019-03-17T04:54:10.409Z,95320.38
2019-03-17T04:56:39.478Z,94998.54
2019-03-17T04:59:29.111Z,95323.56
2019-03-17T05:01:58.191Z,95321.16
2019-03-17T05:04:27.251Z,95320.77
2019-03-17T05:06:56.399Z,95325.58
2019-03-17T05:09:25.444Z,95328.19
2019-03-17T05:11:54.526Z,95328.34
2019-03-17T05:14:23.636Z,95326.78
2019-03-17T05:16:53.760Z,95328.19
2019-03-17T05:19:22.708Z,95325.88
2019-03-17T05:21:53.433Z,95325.44
2019-03-17T05:24:22.738Z,95328.91
2019-03-17T05:26:51.831Z,95325.91
2019-03-17T05:29:20.896Z,95049.36
2019-03-17T05:31:50.335Z,95330.57
2019-03-17T05:34:42.394Z,95332.52
2019-03-17T05:37:14.438Z,95330.42
2019-03-17T05:39:43.857Z,95315.83
2019-03-17T05:42:14.089Z,95324.33
2019-03-17T05:44:43.227Z,95321.82
2019-03-17T05:47:12.272Z,95321.37
2019-03-17T05:49:41.349Z,95313.61
2019-03-17T05:52:10.528Z,95318.92
2019-03-17T05:54:39.588Z,95331.48
2019-03-17T05:57:08.641Z,95313.60
2019-03-17T05:59:37.935Z,95312.31
2019-03-17T06:02:10.154Z,95311.34
2019-03-17T06:04:39.199Z,95312.77
2019-03-17T06:07:18.058Z,95314.28
2019-03-17T06:09:40.776Z,95306.93
2019-03-17T06:12:15.484Z,95311.58
2019-03-17T06:14:45.468Z,95312.96
2019-03-17T06:17:16.399Z,95317.63
2019-03-17T06:19:45.435Z,95323.23
2019-03-17T06:22:16.947Z,95325.91
2019-03-17T06:24:49.283Z,95323.59
2019-03-17T06:27:20.829Z,95330.46
2019-03-17T06:29:50.363Z,95333.84
2019-03-17T06:32:19.476Z,95332.11
2019-03-17T06:34:48.565Z,93874.64
2019-03-17T06:37:30.627Z,95330.52
2019-03-17T06:39:55.190Z,95329.27
2019-03-17T06:42:26.186Z,95329.87
2019-03-17T06:44:56.772Z,95338.73
2019-03-17T06:47:25.867Z,95341.89
2019-03-17T06:49:54.911Z,95346.55
2019-03-17T06:52:24.021Z,95339.25
2019-03-17T06:54:53.058Z,95340.97
2019-03-17T06:57:22.155Z,95339.78
2019-03-17T06:59:51.237Z,95342.59
2019-03-17T07:02:20.354Z,95342.38
2019-03-17T07:04:53.839Z,95342.97
2019-03-17T07:07:20.261Z,95351.39
2019-03-17T07:09:49.707Z,95363.14
2019-03-17T07:12:18.770Z,95358.78
2019-03-17T07:14:49.233Z,95359.72
2019-03-17T07:17:19.476Z,95361.55
2019-03-17T07:19:48.617Z,95364.38
2019-03-17T07:22:17.741Z,95369.45
2019-03-17T07:24:48.153Z,95373.17
2019-03-17T07:27:21.839Z,95373.86
2019-03-17T07:29:50.914Z,95377.17
2019-03-17T07:32:20.378Z,95380.20
2019-03-17T07:34:56.947Z,95376.05
2019-03-17T07:37:29.066Z,95371.95
2019-03-17T07:39:59.724Z,95373.16
2019-03-17T07:42:29.233Z,95377.01
2019-03-17T07:44:58.355Z,95376.58
2019-03-17T07:47:27.752Z,95377.58
2019-03-17T07:49:59.293Z,95376.93
2019-03-17T07:52:28.485Z,95376.70
2019-03-17T07:54:59.053Z,95367.73
2019-03-17T07:57:28.037Z,95364.47
2019-03-17T07:59:58.951Z,95367.56
2019-03-17T08:02:29.252Z,95367.31
2019-03-17T08:05:07.539Z,95367.31
2019-03-17T08:07:40.310Z,95368.16
2019-03-17T08:10:11.496Z,95360.61
2019-03-17T08:12:43.092Z,95359.36
2019-03-17T08:15:14.154Z,95361.72
2019-03-17T08:17:43.348Z,95358.24
2019-03-17T08:20:14.627Z,95354.13
2019-03-17T08:22:43.676Z,95354.09
2019-03-17T08:25:13.361Z,95351.27
2019-03-17T08:27:42.869Z,95354.69
2019-03-17T08:30:14.643Z,95352.58
2019-03-17T08:32:43.713Z,95358.66
2019-03-17T08:35:13.982Z,95349.95
2019-03-17T08:37:43.143Z,95363.05
2019-03-17T08:40:12.817Z,95355.92
2019-03-17T08:42:41.875Z,95348.86
2019-03-17T08:45:15.750Z,95349.28
2019-03-17T08:47:57.528Z,95349.36
2019-03-17T08:50:18.457Z,95352.41
2019-03-17T08:52:49.076Z,95348.84
2019-03-17T08:55:19.344Z,95352.77
2019-03-17T08:57:49.702Z,95352.41
2019-03-17T09:00:19.116Z,95354.30
2019-03-17T09:02:48.257Z,95343.23
2019-03-17T09:05:17.426Z,95349.64
2019-03-17T09:07:47.678Z,95498.50
2019-03-17T09:10:16.743Z,95356.58
2019-03-17T09:12:47.948Z,95348.34
2019-03-17T09:15:18.551Z,95340.30
2019-03-17T09:17:47.646Z,95337.78
2019-03-17T09:20:16.765Z,95343.91
2019-03-17T09:22:45.837Z,95341.84
2019-03-17T09:25:15.853Z,95328.38
2019-03-17T09:27:45.919Z,95347.98
2019-03-17T09:30:17.063Z,95336.70
2019-03-17T09:32:50.078Z,95346.73
2019-03-17T09:35:19.203Z,95345.39
2019-03-17T09:37:49.369Z,95347.52
2019-03-17T09:40:20.490Z,95344.67
2019-03-17T09:42:50.042Z,95336.84
2019-03-17T09:45:22.298Z,95336.63
2019-03-17T09:47:51.399Z,95336.39
2019-03-17T09:50:20.562Z,95338.75
2019-03-17T09:52:49.615Z,95275.06
2019-03-17T09:55:18.753Z,95330.97
2019-03-17T09:57:47.801Z,95335.11
2019-03-17T10:00:17.610Z,95333.81
2019-03-17T10:02:49.772Z,95321.45
2019-03-17T10:05:18.873Z,95318.36
2019-03-17T10:07:47.979Z,95337.87
2019-03-17T10:10:17.083Z,95317.98
2019-03-17T10:12:47.511Z,95319.94
2019-03-17T10:15:16.601Z,95319.77
2019-03-17T10:17:48.793Z,95327.28
2019-03-17T10:20:19.690Z,95311.55
2019-03-17T10:22:49.411Z,95306.37
2019-03-17T10:25:18.624Z,95309.44
2019-03-17T10:27:52.104Z,95305.47
2019-03-17T10:30:21.504Z,95300.98
2019-03-17T10:32:51.977Z,95304.98
2019-03-17T10:35:21.061Z,95299.66
2019-03-17T10:37:53.611Z,95301.48
2019-03-17T10:40:26.456Z,95292.47
2019-03-17T10:42:56.046Z,95292.55
2019-03-17T10:45:25.071Z,95285.91
2019-03-17T10:47:54.744Z,95281.56
2019-03-17T10:50:24.033Z,95275.69
2019-03-17T10:52:53.424Z,95283.91
2019-03-17T10:55:34.650Z,95273.11
2019-03-17T10:58:04.184Z,95285.73
2019-03-17T11:00:36.310Z,95268.93
2019-03-17T11:03:08.371Z,95277.72
2019-03-17T11:05:37.469Z,95277.49
2019-03-17T11:08:06.520Z,95278.57
2019-03-17T11:10:35.595Z,95270.95
2019-03-17T11:13:06.048Z,95274.78
2019-03-17T11:15:37.195Z,95281.45
2019-03-17T11:18:08.392Z,95281.08
2019-03-17T11:20:37.827Z,95293.98
2019-03-17T11:23:06.916Z,95292.43
2019-03-17T11:25:36.092Z,95287.28
2019-03-17T11:28:05.173Z,95286.03
2019-03-17T11:30:37.723Z,95282.33
2019-03-17T11:33:07.196Z,95299.78
2019-03-17T11:35:36.277Z,95298.78
2019-03-17T11:38:05.850Z,95288.80
2019-03-17T11:40:35.496Z,95292.33
2019-03-17T11:43:06.540Z,95291.03
2019-03-17T11:45:50.448Z,95296.28
2019-03-17T11:48:19.744Z,95305.06
2019-03-17T11:50:51.547Z,95282.51
2019-03-17T11:53:20.644Z,95286.44
2019-03-17T11:55:49.716Z,95286.66
2019-03-17T11:58:18.870Z,95291.75
2019-03-17T12:00:48.137Z,95291.27
2019-03-17T12:03:18.445Z,95298.98
2019-03-17T12:05:48.355Z,95304.99
2019-03-17T12:08:23.409Z,95306.70
2019-03-17T12:10:54.975Z,95288.05
2019-03-17T12:13:24.096Z,95303.95
2019-03-17T12:15:53.531Z,95312.86
2019-03-17T12:18:25.998Z,95314.61
2019-03-17T12:20:58.419Z,95310.03
2019-03-17T12:23:27.733Z,95315.30
2019-03-17T12:25:57.185Z,95316.98
2019-03-17T12:28:26.448Z,95307.03
2019-03-17T12:30:56.572Z,95330.85
2019-03-17T12:33:31.635Z,94024.28
2019-03-17T12:36:00.743Z,95335.05
2019-03-17T12:38:34.542Z,95348.12
2019-03-17T12:41:06.798Z,95338.44
2019-03-17T12:43:36.283Z,95342.59
2019-03-17T12:46:05.858Z,95349.50
2019-03-17T12:48:35.020Z,95352.52
2019-03-17T12:51:05.477Z,95355.17
2019-03-17T12:53:34.549Z,95341.63
2019-03-17T12:56:11.158Z,95353.25
2019-03-17T12:58:40.524Z,95353.48
2019-03-17T13:01:09.616Z,95365.31
2019-03-17T13:03:42.360Z,95374.39
2019-03-17T13:06:11.443Z,95378.94
2019-03-17T13:08:40.555Z,95374.08
2019-03-17T13:11:10.649Z,95381.31
2019-03-17T13:13:40.014Z,95388.74
2019-03-17T13:16:10.211Z,95402.44
2019-03-17T13:18:41.788Z,95426.97
2019-03-17T13:21:17.630Z,95420.08
2019-03-17T13:23:46.883Z,95420.65
2019-03-17T13:26:15.948Z,95439.81
2019-03-17T13:28:45.113Z,95464.45
2019-03-17T13:31:15.130Z,95474.17
2019-03-17T13:33:44.224Z,95482.72
2019-03-17T13:36:13.277Z,95500.38
2019-03-17T13:38:42.377Z,95501.20
2019-03-17T13:41:11.468Z,95531.22
2019-03-17T13:43:40.530Z,95550.06
2019-03-17T13:46:11.552Z,95572.08
2019-03-17T13:48:44.546Z,95559.47
2019-03-17T13:51:13.609Z,95571.28
2019-03-17T13:53:43.260Z,95565.70
2019-03-17T13:56:14.675Z,95580.58
2019-03-17T13:58:43.740Z,95597.09
2019-03-17T14:01:17.442Z,95601.33
2019-03-17T14:03:46.670Z,95613.82
2019-03-17T14:06:15.782Z,95635.19
2019-03-17T14:08:46.789Z,95633.96
2019-03-17T14:11:19.050Z,95651.00
2019-03-17T14:13:48.104Z,95657.28
2019-03-17T14:16:22.140Z,95638.38
2019-03-17T14:18:51.332Z,95644.64
2019-03-17T14:21:20.376Z,95645.98
2019-03-17T14:23:49.477Z,95676.89
2019-03-17T14:26:40.864Z,95659.78
2019-03-17T14:29:14.306Z,95671.37
2019-03-17T14:31:46.599Z,95671.41
2019-03-17T14:34:15.715Z,95678.41
2019-03-17T14:36:44.776Z,95683.14
2019-03-17T14:39:13.850Z,95681.64
2019-03-17T14:41:42.915Z,95690.81
2019-03-17T14:44:11.977Z,95690.27
2019-03-17T14:46:42.810Z,95683.38
2019-03-17T14:49:14.983Z,95686.59
2019-03-17T14:51:44.528Z,95683.07
2019-03-17T14:54:17.957Z,94195.70
2019-03-17T14:56:47.018Z,95699.52
2019-03-17T14:59:16.516Z,95701.19
2019-03-17T15:01:47.203Z,95681.48
2019-03-17T15:04:16.341Z,95702.50
2019-03-17T15:06:45.445Z,95691.45
2019-03-17T15:09:14.545Z,95683.83
2019-03-17T15:11:43.693Z,95688.97
2019-03-17T15:14:12.688Z,95687.61
2019-03-17T15:16:41.773Z,95694.28
2019-03-17T15:19:10.850Z,95687.13
2019-03-17T15:21:39.943Z,95686.18
2019-03-17T15:24:09.450Z,95680.41
2019-03-17T15:26:38.545Z,95681.09
2019-03-17T15:29:09.447Z,95676.38
2019-03-17T15:31:39.510Z,95673.75
2019-03-17T15:34:09.940Z,95682.53
2019-03-17T15:36:41.861Z,95675.05
2019-03-17T15:39:15.725Z,95680.92
2019-03-17T15:41:48.296Z,95691.41
2019-03-17T15:44:17.508Z,95713.70
2019-03-17T15:46:46.580Z,95718.70
2019-03-17T15:49:15.938Z,95713.58
2019-03-17T15:51:45.133Z,95717.21
2019-03-17T15:54:15.786Z,95723.91
2019-03-17T15:56:44.840Z,95725.94
2019-03-17T15:59:13.924Z,95737.22
2019-03-17T16:01:43.006Z,95757.97
2019-03-17T16:04:13.436Z,95769.31
2019-03-17T16:06:43.486Z,95771.39
2019-03-17T16:09:12.578Z,95775.41
2019-03-17T16:11:44.264Z,95792.30
2019-03-17T16:14:36.809Z,95776.11
2019-03-17T16:16:45.337Z,95778.90
2019-03-17T16:19:14.395Z,95779.55
2019-03-17T16:21:43.463Z,95779.13
2019-03-17T16:24:16.491Z,95779.42
2019-03-17T16:26:45.560Z,95786.11
2019-03-17T16:29:14.803Z,94497.77
2019-03-17T16:31:45.563Z,95781.77
2019-03-17T16:34:19.329Z,95785.16
2019-03-17T16:36:50.585Z,95776.72
2019-03-17T16:39:22.846Z,95779.17
2019-03-17T16:41:51.951Z,95791.21
2019-03-17T16:44:21.025Z,95718.55
2019-03-17T16:46:52.602Z,95731.72
2019-03-17T16:49:21.666Z,95800.14
2019-03-17T16:51:53.833Z,95814.09
2019-03-17T16:54:23.348Z,95817.61
2019-03-17T16:56:54.102Z,95507.22
2019-03-17T16:59:24.426Z,95816.79
2019-03-17T17:01:55.323Z,95809.28
2019-03-17T17:04:27.153Z,95809.87
2019-03-17T17:06:58.024Z,95820.21
2019-03-17T17:09:31.011Z,95821.96
2019-03-17T17:12:04.702Z,95825.39
2019-03-17T17:14:35.002Z,95840.33
2019-03-17T17:17:04.303Z,95847.75
2019-03-17T17:19:33.844Z,95841.21
2019-03-17T17:22:03.030Z,95850.17
2019-03-17T17:24:33.496Z,95865.06
2019-03-17T17:27:02.562Z,95870.34
2019-03-17T17:29:33.412Z,95880.33
2019-03-17T17:32:02.512Z,95877.09
2019-03-17T17:34:36.074Z,95880.13
2019-03-17T17:37:07.048Z,95870.95
2019-03-17T17:39:36.495Z,95879.70
2019-03-17T17:42:09.948Z,95883.44
2019-03-17T17:44:36.543Z,95897.80
2019-03-17T17:47:05.653Z,95895.44
2019-03-17T17:49:34.720Z,95905.70
2019-03-17T17:52:05.160Z,95903.59
2019-03-17T17:54:37.538Z,95901.31
2019-03-17T17:57:09.608Z,95888.07
2019-03-17T17:59:41.821Z,95880.32
2019-03-17T18:02:13.976Z,95910.19
2019-03-17T18:04:43.166Z,95926.68
2019-03-17T18:07:13.585Z,95936.91
2019-03-17T18:09:51.073Z,95933.30
2019-03-17T18:12:21.424Z,95933.09
2019-03-17T18:14:50.874Z,95927.47
2019-03-17T18:17:22.343Z,95935.62
2019-03-17T18:19:51.421Z,95955.90
2019-03-17T18:22:20.543Z,95960.62
2019-03-17T18:24:51.653Z,95957.85
2019-03-17T18:27:20.792Z,95967.56
2019-03-17T18:29:49.918Z,95988.17
2019-03-17T18:32:18.942Z,96001.19
2019-03-17T18:34:50.526Z,96001.19
2019-03-17T18:37:19.335Z,95998.53
2019-03-17T18:39:48.483Z,95990.23
2019-03-17T18:42:19.984Z,95991.54
2019-03-17T18:44:49.097Z,95987.95
2019-03-17T18:47:18.196Z,95979.09
2019-03-17T18:49:48.594Z,95984.06
2019-03-17T18:52:24.969Z,95981.47
2019-03-17T18:54:56.882Z,95991.19
2019-03-17T18:57:27.754Z,95998.05
2019-03-17T18:59:59.897Z,96006.59
2019-03-17T19:02:31.012Z,96025.03
2019-03-17T19:05:02.446Z,96045.36
2019-03-17T19:07:33.220Z,96060.05
2019-03-17T19:10:04.013Z,96044.72
2019-03-17T19:12:44.966Z,96036.91
2019-03-17T19:15:24.822Z,96027.98
2019-03-17T19:17:53.923Z,96006.98
2019-03-17T19:20:25.057Z,96018.38
2019-03-17T19:22:54.142Z,96028.55
2019-03-17T19:25:23.290Z,96037.94
2019-03-17T19:27:54.421Z,96050.69
2019-03-17T19:30:23.620Z,96063.42
2019-03-17T19:32:54.129Z,96069.34
2019-03-17T19:35:23.459Z,96077.91
2019-03-17T19:37:52.635Z,96089.59
2019-03-17T19:40:22.855Z,96083.22
2019-03-17T19:42:59.090Z,96088.98
2019-03-17T19:45:24.462Z,96087.66
2019-03-17T19:47:53.863Z,96085.86
2019-03-17T19:50:22.993Z,96090.63
2019-03-17T19:52:52.206Z,96100.79
2019-03-17T19:55:22.879Z,96031.14
2019-03-17T19:57:51.979Z,96096.20
2019-03-17T20:00:22.405Z,96086.81
2019-03-17T20:02:52.744Z,96110.27
2019-03-17T20:05:22.070Z,96120.95
2019-03-17T20:07:51.164Z,96130.19
2019-03-17T20:10:22.984Z,96141.38
2019-03-17T20:12:56.671Z,96146.02
2019-03-17T20:15:27.320Z,96143.98
2019-03-17T20:17:56.739Z,96147.38
2019-03-17T20:20:27.010Z,96136.67
2019-03-17T20:22:58.151Z,96135.94
2019-03-17T20:25:27.640Z,96150.56
2019-03-17T20:27:57.047Z,96148.84
2019-03-17T20:30:27.266Z,96155.05
2019-03-17T20:32:56.543Z,96162.53
2019-03-17T20:35:30.132Z,96166.64
2019-03-17T20:37:59.217Z,96165.16
2019-03-17T20:40:28.276Z,96166.63
2019-03-17T20:42:58.517Z,96169.63
2019-03-17T20:45:31.207Z,96156.27
2019-03-17T20:48:01.781Z,96181.93
2019-03-17T20:50:31.028Z,96162.12
2019-03-17T20:53:03.215Z,96177.27
2019-03-17T20:55:32.466Z,96174.83
2019-03-17T20:58:02.828Z,96181.63
2019-03-17T21:00:35.026Z,96200.12
2019-03-17T21:03:07.498Z,96216.62
2019-03-17T21:05:36.574Z,96234.14
2019-03-17T21:08:08.443Z,96243.13
2019-03-17T21:10:40.477Z,96239.83
2019-03-17T21:13:11.436Z,96237.85
2019-03-17T21:15:43.810Z,96234.91
2019-03-17T21:18:12.948Z,96242.59
2019-03-17T21:20:42.066Z,95923.22
2019-03-17T21:23:11.118Z,96228.78
2019-03-17T21:25:42.153Z,96233.45
2019-03-17T21:28:11.205Z,96251.37
2019-03-17T21:30:40.311Z,96248.97
2019-03-17T21:33:09.359Z,96240.10
2019-03-17T21:35:38.486Z,96246.31
2019-03-17T21:38:12.201Z,96240.12
2019-03-17T21:41:01.661Z,96256.91
2019-03-17T21:43:19.467Z,96257.75
2019-03-17T21:45:48.614Z,96259.50
2019-03-17T21:48:17.727Z,96264.44
2019-03-17T21:50:47.210Z,96258.46
2019-03-17T21:53:16.344Z,96269.13
2019-03-17T21:55:48.867Z,96280.33
2019-03-17T21:58:21.155Z,96283.34
2019-03-17T22:00:51.405Z,96291.08
2019-03-17T22:03:22.081Z,96294.44
2019-03-17T22:05:52.585Z,96291.00
2019-03-17T22:08:21.657Z,96299.70
2019-03-17T22:10:55.901Z,96300.08
2019-03-17T22:13:27.196Z,96292.81
2019-03-17T22:16:00.507Z,96294.01
2019-03-17T22:18:30.997Z,96304.87
2019-03-17T22:21:01.842Z,96306.06
2019-03-17T22:23:32.010Z,96300.76
2019-03-17T22:26:01.162Z,96307.21
2019-03-17T22:28:32.223Z,96305.42
2019-03-17T22:31:04.885Z,96304.59
2019-03-17T22:33:35.468Z,96302.34
2019-03-17T22:36:06.832Z,96304.02
2019-03-17T22:38:39.953Z,96313.93
2019-03-17T22:41:09.014Z,96312.87
2019-03-17T22:43:38.122Z,96285.38
2019-03-17T22:46:08.979Z,96324.28
2019-03-17T22:48:38.669Z,96325.16
2019-03-17T22:51:07.739Z,96329.73
2019-03-17T22:53:41.741Z,96388.08
2019-03-17T22:56:11.331Z,96334.89
2019-03-17T22:58:43.572Z,96333.39
2019-03-17T23:01:12.613Z,96339.66
2019-03-17T23:03:41.692Z,96336.70
2019-03-17T23:06:10.749Z,96338.98
2019-03-17T23:08:41.217Z,96348.08
2019-03-17T23:11:16.658Z,96339.96
2019-03-17T23:13:45.811Z,96337.09
2019-03-17T23:16:14.923Z,96338.25
2019-03-17T23:18:44.063Z,96348.30
2019-03-17T23:21:15.421Z,96350.02
2019-03-17T23:23:52.844Z,96347.31
2019-03-17T23:26:25.066Z,96339.17
2019-03-17T23:28:54.192Z,96338.43
2019-03-17T23:31:26.340Z,96340.30
2019-03-17T23:33:55.398Z,96321.86
2019-03-17T23:36:24.471Z,96347.31
2019-03-17T23:38:53.529Z,96344.11
2019-03-17T23:41:22.604Z,96356.70
2019-03-17T23:43:51.685Z,96354.97
2019-03-17T23:46:20.788Z,96351.63
2019-03-17T23:48:49.811Z,96359.86
2019-03-17T23:51:18.859Z,96360.72
2019-03-17T23:53:47.905Z,96363.45
2019-03-17T23:56:17.128Z,96367.69
2019-03-17T23:58:47.829Z,96368.38
